sensor_id;sensor_type;location;lat;lon;timestamp;P1;durP1;ratioP1;P2;durP2;ratioP2
68583;SDS011;55557;49.220;11.150;2023-07-13T00:01:11;4.60;;;3.43;;
68583;SDS011;55557;49.220;11.150;2023-07-13T00:03:37;4.93;;;3.33;;
68583;SDS011;55557;49.220;11.150;2023-07-13T00:06:05;7.50;;;3.60;;
68583;SDS011;55557;49.220;11.150;2023-07-13T00:08:32;7.83;;;3.67;;
68583;SDS011;55557;49.220;11.150;2023-07-13T00:10:58;3.97;;;3.20;;
68583;SDS011;55557;49.220;11.150;2023-07-13T00:13:24;4.57;;;3.30;;
68583;SDS011;55557;49.220;11.150;2023-07-13T00:15:50;5.30;;;3.63;;
68583;SDS011;55557;49.220;11.150;2023-07-13T00:18:16;6.03;;;3.30;;
68583;SDS011;55557;49.220;11.150;2023-07-13T00:20:42;5.87;;;3.37;;
68583;SDS011;55557;49.220;11.150;2023-07-13T00:23:08;7.10;;;3.87;;
68583;SDS011;55557;49.220;11.150;2023-07-13T00:25:34;6.10;;;4.17;;
68583;SDS011;55557;49.220;11.150;2023-07-13T00:28:00;6.43;;;3.67;;
68583;SDS011;55557;49.220;11.150;2023-07-13T00:30:26;5.03;;;3.70;;
68583;SDS011;55557;49.220;11.150;2023-07-13T00:32:52;5.50;;;3.83;;
68583;SDS011;55557;49.220;11.150;2023-07-13T00:35:18;4.50;;;3.13;;
68583;SDS011;55557;49.220;11.150;2023-07-13T00:37:44;7.00;;;4.37;;
68583;SDS011;55557;49.220;11.150;2023-07-13T00:40:11;5.33;;;3.23;;
68583;SDS011;55557;49.220;11.150;2023-07-13T00:42:38;5.37;;;3.63;;
68583;SDS011;55557;49.220;11.150;2023-07-13T00:47:40;3.13;;;2.80;;
68583;SDS011;55557;49.220;11.150;2023-07-13T00:50:10;5.53;;;3.33;;
68583;SDS011;55557;49.220;11.150;2023-07-13T00:52:39;5.27;;;3.60;;
68583;SDS011;55557;49.220;11.150;2023-07-13T00:55:06;4.93;;;3.17;;
68583;SDS011;55557;49.220;11.150;2023-07-13T00:57:34;6.10;;;3.20;;
68583;SDS011;55557;49.220;11.150;2023-07-13T01:00:00;5.33;;;3.40;;
68583;SDS011;55557;49.220;11.150;2023-07-13T01:02:38;5.70;;;3.10;;
68583;SDS011;55557;49.220;11.150;2023-07-13T01:05:15;5.53;;;3.37;;
68583;SDS011;55557;49.220;11.150;2023-07-13T01:07:41;5.47;;;3.20;;
68583;SDS011;55557;49.220;11.150;2023-07-13T01:10:08;4.80;;;3.50;;
68583;SDS011;55557;49.220;11.150;2023-07-13T01:12:35;4.43;;;3.10;;
68583;SDS011;55557;49.220;11.150;2023-07-13T01:15:02;4.10;;;2.90;;
68583;SDS011;55557;49.220;11.150;2023-07-13T01:17:28;5.80;;;3.67;;
68583;SDS011;55557;49.220;11.150;2023-07-13T01:19:54;4.30;;;2.90;;
68583;SDS011;55557;49.220;11.150;2023-07-13T01:22:21;4.00;;;3.00;;
68583;SDS011;55557;49.220;11.150;2023-07-13T01:24:50;5.60;;;3.30;;
68583;SDS011;55557;49.220;11.150;2023-07-13T01:27:17;5.67;;;3.53;;
68583;SDS011;55557;49.220;11.150;2023-07-13T01:29:45;6.60;;;3.27;;
68583;SDS011;55557;49.220;11.150;2023-07-13T01:32:14;7.43;;;3.37;;
68583;SDS011;55557;49.220;11.150;2023-07-13T01:34:41;4.23;;;3.27;;
68583;SDS011;55557;49.220;11.150;2023-07-13T01:37:07;3.97;;;3.00;;
68583;SDS011;55557;49.220;11.150;2023-07-13T01:39:34;5.60;;;3.00;;
68583;SDS011;55557;49.220;11.150;2023-07-13T01:42:00;5.20;;;3.07;;
68583;SDS011;55557;49.220;11.150;2023-07-13T01:44:26;7.20;;;3.50;;
68583;SDS011;55557;49.220;11.150;2023-07-13T01:46:52;6.63;;;2.97;;
68583;SDS011;55557;49.220;11.150;2023-07-13T01:49:18;7.07;;;3.07;;
68583;SDS011;55557;49.220;11.150;2023-07-13T01:51:44;4.10;;;3.07;;
68583;SDS011;55557;49.220;11.150;2023-07-13T01:54:10;5.63;;;2.80;;
68583;SDS011;55557;49.220;11.150;2023-07-13T01:56:36;3.60;;;3.03;;
68583;SDS011;55557;49.220;11.150;2023-07-13T01:59:02;4.03;;;2.83;;
68583;SDS011;55557;49.220;11.150;2023-07-13T02:01:28;4.23;;;2.50;;
68583;SDS011;55557;49.220;11.150;2023-07-13T02:03:54;3.87;;;2.97;;
68583;SDS011;55557;49.220;11.150;2023-07-13T02:06:20;4.23;;;2.70;;
68583;SDS011;55557;49.220;11.150;2023-07-13T02:08:46;5.03;;;3.07;;
68583;SDS011;55557;49.220;11.150;2023-07-13T02:11:12;4.57;;;3.13;;
68583;SDS011;55557;49.220;11.150;2023-07-13T02:13:38;4.53;;;3.40;;
68583;SDS011;55557;49.220;11.150;2023-07-13T02:16:05;4.17;;;3.10;;
68583;SDS011;55557;49.220;11.150;2023-07-13T02:18:31;3.90;;;2.80;;
68583;SDS011;55557;49.220;11.150;2023-07-13T02:20:57;4.07;;;2.83;;
68583;SDS011;55557;49.220;11.150;2023-07-13T02:23:23;6.53;;;2.93;;
68583;SDS011;55557;49.220;11.150;2023-07-13T02:25:53;4.70;;;2.43;;
68583;SDS011;55557;49.220;11.150;2023-07-13T02:28:19;5.63;;;3.10;;
68583;SDS011;55557;49.220;11.150;2023-07-13T02:30:45;3.23;;;2.83;;
68583;SDS011;55557;49.220;11.150;2023-07-13T02:33:14;8.87;;;3.23;;
68583;SDS011;55557;49.220;11.150;2023-07-13T02:35:40;3.30;;;2.47;;
68583;SDS011;55557;49.220;11.150;2023-07-13T02:38:06;5.63;;;2.93;;
68583;SDS011;55557;49.220;11.150;2023-07-13T02:40:33;6.03;;;2.93;;
68583;SDS011;55557;49.220;11.150;2023-07-13T02:43:00;6.97;;;2.53;;
68583;SDS011;55557;49.220;11.150;2023-07-13T02:45:26;5.73;;;2.83;;
68583;SDS011;55557;49.220;11.150;2023-07-13T02:47:52;7.80;;;2.63;;
68583;SDS011;55557;49.220;11.150;2023-07-13T02:50:18;4.50;;;2.67;;
68583;SDS011;55557;49.220;11.150;2023-07-13T02:52:44;3.73;;;2.67;;
68583;SDS011;55557;49.220;11.150;2023-07-13T02:55:10;5.50;;;3.23;;
68583;SDS011;55557;49.220;11.150;2023-07-13T02:57:36;3.33;;;2.43;;
68583;SDS011;55557;49.220;11.150;2023-07-13T03:00:03;4.00;;;2.40;;
68583;SDS011;55557;49.220;11.150;2023-07-13T03:02:32;7.33;;;2.67;;
68583;SDS011;55557;49.220;11.150;2023-07-13T03:04:59;4.03;;;3.03;;
68583;SDS011;55557;49.220;11.150;2023-07-13T03:07:25;5.40;;;2.27;;
68583;SDS011;55557;49.220;11.150;2023-07-13T03:09:57;8.97;;;2.70;;
68583;SDS011;55557;49.220;11.150;2023-07-13T03:12:24;2.83;;;2.33;;
68583;SDS011;55557;49.220;11.150;2023-07-13T03:14:50;7.97;;;2.40;;
68583;SDS011;55557;49.220;11.150;2023-07-13T03:17:16;3.40;;;2.60;;
68583;SDS011;55557;49.220;11.150;2023-07-13T03:19:42;2.73;;;2.33;;
68583;SDS011;55557;49.220;11.150;2023-07-13T03:22:08;3.60;;;2.07;;
68583;SDS011;55557;49.220;11.150;2023-07-13T03:24:35;2.30;;;1.90;;
68583;SDS011;55557;49.220;11.150;2023-07-13T03:27:03;2.17;;;1.83;;
68583;SDS011;55557;49.220;11.150;2023-07-13T03:29:29;4.07;;;1.87;;
68583;SDS011;55557;49.220;11.150;2023-07-13T03:31:55;2.63;;;1.87;;
68583;SDS011;55557;49.220;11.150;2023-07-13T03:34:21;2.03;;;1.70;;
68583;SDS011;55557;49.220;11.150;2023-07-13T03:36:47;2.50;;;2.00;;
68583;SDS011;55557;49.220;11.150;2023-07-13T03:39:14;6.47;;;1.90;;
68583;SDS011;55557;49.220;11.150;2023-07-13T03:41:40;3.63;;;1.70;;
68583;SDS011;55557;49.220;11.150;2023-07-13T03:44:05;3.13;;;1.40;;
68583;SDS011;55557;49.220;11.150;2023-07-13T03:46:32;1.80;;;1.60;;
68583;SDS011;55557;49.220;11.150;2023-07-13T03:49:01;3.70;;;1.77;;
68583;SDS011;55557;49.220;11.150;2023-07-13T03:51:27;5.03;;;1.60;;
68583;SDS011;55557;49.220;11.150;2023-07-13T03:54:03;4.03;;;1.70;;
68583;SDS011;55557;49.220;11.150;2023-07-13T03:56:29;3.07;;;1.50;;
68583;SDS011;55557;49.220;11.150;2023-07-13T03:58:57;1.33;;;1.10;;
68583;SDS011;55557;49.220;11.150;2023-07-13T04:01:23;4.70;;;1.40;;
68583;SDS011;55557;49.220;11.150;2023-07-13T04:03:50;4.03;;;1.73;;
68583;SDS011;55557;49.220;11.150;2023-07-13T04:06:17;3.87;;;1.50;;
68583;SDS011;55557;49.220;11.150;2023-07-13T04:08:51;2.63;;;1.67;;
68583;SDS011;55557;49.220;11.150;2023-07-13T04:11:18;2.27;;;1.80;;
68583;SDS011;55557;49.220;11.150;2023-07-13T04:13:44;2.17;;;1.30;;
68583;SDS011;55557;49.220;11.150;2023-07-13T04:16:10;5.17;;;1.70;;
68583;SDS011;55557;49.220;11.150;2023-07-13T04:18:36;1.73;;;1.47;;
68583;SDS011;55557;49.220;11.150;2023-07-13T04:21:02;3.50;;;1.37;;
68583;SDS011;55557;49.220;11.150;2023-07-13T04:23:29;3.40;;;1.33;;
68583;SDS011;55557;49.220;11.150;2023-07-13T04:25:55;1.80;;;1.40;;
68583;SDS011;55557;49.220;11.150;2023-07-13T04:28:21;2.53;;;1.67;;
68583;SDS011;55557;49.220;11.150;2023-07-13T04:30:48;9.03;;;1.77;;
68583;SDS011;55557;49.220;11.150;2023-07-13T04:33:14;1.77;;;1.40;;
68583;SDS011;55557;49.220;11.150;2023-07-13T04:35:42;1.80;;;1.33;;
68583;SDS011;55557;49.220;11.150;2023-07-13T04:38:09;2.43;;;1.50;;
68583;SDS011;55557;49.220;11.150;2023-07-13T04:40:36;2.77;;;1.40;;
68583;SDS011;55557;49.220;11.150;2023-07-13T04:43:02;4.27;;;1.37;;
68583;SDS011;55557;49.220;11.150;2023-07-13T04:45:28;2.20;;;1.43;;
68583;SDS011;55557;49.220;11.150;2023-07-13T04:47:56;17.07;;;1.80;;
68583;SDS011;55557;49.220;11.150;2023-07-13T04:50:22;3.87;;;1.47;;
68583;SDS011;55557;49.220;11.150;2023-07-13T04:52:51;3.43;;;1.50;;
68583;SDS011;55557;49.220;11.150;2023-07-13T04:55:18;1.87;;;1.40;;
68583;SDS011;55557;49.220;11.150;2023-07-13T04:57:44;7.00;;;1.77;;
68583;SDS011;55557;49.220;11.150;2023-07-13T05:00:10;2.60;;;1.70;;
68583;SDS011;55557;49.220;11.150;2023-07-13T05:02:37;3.83;;;1.67;;
68583;SDS011;55557;49.220;11.150;2023-07-13T05:05:04;2.03;;;1.30;;
68583;SDS011;55557;49.220;11.150;2023-07-13T05:07:30;2.43;;;1.50;;
68583;SDS011;55557;49.220;11.150;2023-07-13T05:09:57;2.10;;;1.27;;
68583;SDS011;55557;49.220;11.150;2023-07-13T05:12:23;7.70;;;1.90;;
68583;SDS011;55557;49.220;11.150;2023-07-13T05:14:53;7.33;;;1.60;;
68583;SDS011;55557;49.220;11.150;2023-07-13T05:17:19;5.17;;;1.77;;
68583;SDS011;55557;49.220;11.150;2023-07-13T05:19:45;3.77;;;1.30;;
68583;SDS011;55557;49.220;11.150;2023-07-13T05:22:11;2.10;;;1.47;;
68583;SDS011;55557;49.220;11.150;2023-07-13T05:24:37;2.47;;;1.30;;
68583;SDS011;55557;49.220;11.150;2023-07-13T05:27:03;2.43;;;1.50;;
68583;SDS011;55557;49.220;11.150;2023-07-13T05:29:29;4.73;;;1.40;;
68583;SDS011;55557;49.220;11.150;2023-07-13T05:31:55;4.47;;;1.30;;
68583;SDS011;55557;49.220;11.150;2023-07-13T05:34:21;4.20;;;1.37;;
68583;SDS011;55557;49.220;11.150;2023-07-13T05:36:47;4.30;;;1.47;;
68583;SDS011;55557;49.220;11.150;2023-07-13T05:39:14;3.53;;;1.40;;
68583;SDS011;55557;49.220;11.150;2023-07-13T05:41:40;4.10;;;1.37;;
68583;SDS011;55557;49.220;11.150;2023-07-13T05:44:06;3.93;;;1.47;;
68583;SDS011;55557;49.220;11.150;2023-07-13T05:46:32;2.30;;;1.50;;
68583;SDS011;55557;49.220;11.150;2023-07-13T05:48:58;1.33;;;1.23;;
68583;SDS011;55557;49.220;11.150;2023-07-13T05:51:24;2.73;;;1.40;;
68583;SDS011;55557;49.220;11.150;2023-07-13T05:53:50;5.47;;;1.60;;
68583;SDS011;55557;49.220;11.150;2023-07-13T05:56:16;4.30;;;1.30;;
68583;SDS011;55557;49.220;11.150;2023-07-13T05:58:43;2.97;;;1.50;;
68583;SDS011;55557;49.220;11.150;2023-07-13T06:01:10;4.80;;;1.30;;
68583;SDS011;55557;49.220;11.150;2023-07-13T06:03:36;2.10;;;1.10;;
68583;SDS011;55557;49.220;11.150;2023-07-13T06:06:05;1.53;;;1.30;;
68583;SDS011;55557;49.220;11.150;2023-07-13T06:08:31;2.40;;;1.60;;
68583;SDS011;55557;49.220;11.150;2023-07-13T06:11:09;1.93;;;1.50;;
68583;SDS011;55557;49.220;11.150;2023-07-13T06:13:40;5.63;;;1.50;;
68583;SDS011;55557;49.220;11.150;2023-07-13T06:16:07;2.63;;;1.50;;
68583;SDS011;55557;49.220;11.150;2023-07-13T06:18:34;2.00;;;1.40;;
68583;SDS011;55557;49.220;11.150;2023-07-13T06:21:11;3.13;;;1.20;;
68583;SDS011;55557;49.220;11.150;2023-07-13T06:23:38;3.73;;;1.63;;
68583;SDS011;55557;49.220;11.150;2023-07-13T06:26:04;5.00;;;2.40;;
68583;SDS011;55557;49.220;11.150;2023-07-13T06:28:30;3.63;;;1.40;;
68583;SDS011;55557;49.220;11.150;2023-07-13T06:30:57;2.70;;;1.10;;
68583;SDS011;55557;49.220;11.150;2023-07-13T06:33:23;4.20;;;1.03;;
68583;SDS011;55557;49.220;11.150;2023-07-13T06:35:50;4.23;;;1.60;;
68583;SDS011;55557;49.220;11.150;2023-07-13T06:38:16;1.50;;;1.00;;
68583;SDS011;55557;49.220;11.150;2023-07-13T06:40:42;2.90;;;1.40;;
68583;SDS011;55557;49.220;11.150;2023-07-13T06:43:08;2.93;;;1.30;;
68583;SDS011;55557;49.220;11.150;2023-07-13T06:45:41;2.90;;;1.13;;
68583;SDS011;55557;49.220;11.150;2023-07-13T06:48:08;2.33;;;1.10;;
68583;SDS011;55557;49.220;11.150;2023-07-13T06:50:34;2.27;;;1.03;;
68583;SDS011;55557;49.220;11.150;2023-07-13T06:53:00;3.43;;;1.10;;
68583;SDS011;55557;49.220;11.150;2023-07-13T06:55:26;1.30;;;1.17;;
68583;SDS011;55557;49.220;11.150;2023-07-13T06:57:52;3.27;;;1.10;;
68583;SDS011;55557;49.220;11.150;2023-07-13T07:00:18;2.23;;;1.20;;
68583;SDS011;55557;49.220;11.150;2023-07-13T07:02:44;1.27;;;0.90;;
68583;SDS011;55557;49.220;11.150;2023-07-13T07:05:10;8.63;;;1.30;;
68583;SDS011;55557;49.220;11.150;2023-07-13T07:07:36;3.60;;;1.30;;
68583;SDS011;55557;49.220;11.150;2023-07-13T07:10:02;2.77;;;1.30;;
68583;SDS011;55557;49.220;11.150;2023-07-13T07:12:28;4.43;;;1.50;;
68583;SDS011;55557;49.220;11.150;2023-07-13T07:14:55;2.57;;;1.00;;
68583;SDS011;55557;49.220;11.150;2023-07-13T07:17:23;3.37;;;1.20;;
68583;SDS011;55557;49.220;11.150;2023-07-13T07:19:52;4.57;;;1.17;;
68583;SDS011;55557;49.220;11.150;2023-07-13T07:22:19;5.37;;;1.30;;
68583;SDS011;55557;49.220;11.150;2023-07-13T07:24:45;3.23;;;1.27;;
68583;SDS011;55557;49.220;11.150;2023-07-13T07:27:11;2.93;;;1.10;;
68583;SDS011;55557;49.220;11.150;2023-07-13T07:29:37;4.23;;;1.20;;
68583;SDS011;55557;49.220;11.150;2023-07-13T07:35:10;4.47;;;1.27;;
68583;SDS011;55557;49.220;11.150;2023-07-13T07:37:36;2.43;;;1.00;;
68583;SDS011;55557;49.220;11.150;2023-07-13T07:40:02;1.93;;;1.30;;
68583;SDS011;55557;49.220;11.150;2023-07-13T07:42:28;2.57;;;1.27;;
68583;SDS011;55557;49.220;11.150;2023-07-13T07:44:54;1.63;;;1.07;;
68583;SDS011;55557;49.220;11.150;2023-07-13T07:47:21;2.07;;;1.03;;
68583;SDS011;55557;49.220;11.150;2023-07-13T07:49:50;2.27;;;1.17;;
68583;SDS011;55557;49.220;11.150;2023-07-13T07:52:16;3.77;;;1.10;;
68583;SDS011;55557;49.220;11.150;2023-07-13T07:54:42;3.33;;;1.20;;
68583;SDS011;55557;49.220;11.150;2023-07-13T07:57:10;3.90;;;1.20;;
68583;SDS011;55557;49.220;11.150;2023-07-13T07:59:36;3.00;;;1.17;;
68583;SDS011;55557;49.220;11.150;2023-07-13T08:02:03;3.23;;;1.20;;
68583;SDS011;55557;49.220;11.150;2023-07-13T08:04:29;3.30;;;1.37;;
68583;SDS011;55557;49.220;11.150;2023-07-13T08:06:55;4.83;;;1.33;;
68583;SDS011;55557;49.220;11.150;2023-07-13T08:09:22;5.43;;;1.33;;
68583;SDS011;55557;49.220;11.150;2023-07-13T08:11:48;1.77;;;1.10;;
68583;SDS011;55557;49.220;11.150;2023-07-13T08:14:14;3.37;;;1.40;;
68583;SDS011;55557;49.220;11.150;2023-07-13T08:16:40;6.77;;;1.50;;
68583;SDS011;55557;49.220;11.150;2023-07-13T08:19:07;3.17;;;1.40;;
68583;SDS011;55557;49.220;11.150;2023-07-13T08:21:33;3.57;;;1.60;;
68583;SDS011;55557;49.220;11.150;2023-07-13T08:23:59;1.73;;;1.10;;
68583;SDS011;55557;49.220;11.150;2023-07-13T08:26:25;5.40;;;1.20;;
68583;SDS011;55557;49.220;11.150;2023-07-13T08:28:51;2.60;;;1.20;;
68583;SDS011;55557;49.220;11.150;2023-07-13T08:31:17;1.90;;;0.90;;
68583;SDS011;55557;49.220;11.150;2023-07-13T08:33:43;1.67;;;1.00;;
68583;SDS011;55557;49.220;11.150;2023-07-13T08:36:10;3.27;;;0.83;;
68583;SDS011;55557;49.220;11.150;2023-07-13T08:38:36;2.53;;;0.70;;
68583;SDS011;55557;49.220;11.150;2023-07-13T08:41:03;2.47;;;0.90;;
68583;SDS011;55557;49.220;11.150;2023-07-13T08:43:36;4.87;;;1.27;;
68583;SDS011;55557;49.220;11.150;2023-07-13T08:53:46;2.13;;;1.13;;
68583;SDS011;55557;49.220;11.150;2023-07-13T08:56:16;9.73;;;1.40;;
68583;SDS011;55557;49.220;11.150;2023-07-13T08:58:43;1.50;;;0.80;;
68583;SDS011;55557;49.220;11.150;2023-07-13T09:01:15;4.20;;;1.07;;
68583;SDS011;55557;49.220;11.150;2023-07-13T09:03:57;5.13;;;1.00;;
68583;SDS011;55557;49.220;11.150;2023-07-13T09:06:31;1.30;;;1.20;;
68583;SDS011;55557;49.220;11.150;2023-07-13T09:11:56;1.73;;;0.90;;
68583;SDS011;55557;49.220;11.150;2023-07-13T09:16:51;3.70;;;1.20;;
68583;SDS011;55557;49.220;11.150;2023-07-13T09:19:23;3.33;;;1.10;;
68583;SDS011;55557;49.220;11.150;2023-07-13T09:21:50;2.23;;;1.20;;
68583;SDS011;55557;49.220;11.150;2023-07-13T09:26:45;2.27;;;1.23;;
68583;SDS011;55557;49.220;11.150;2023-07-13T09:29:17;2.83;;;0.80;;
68583;SDS011;55557;49.220;11.150;2023-07-13T09:31:47;3.87;;;1.10;;
68583;SDS011;55557;49.220;11.150;2023-07-13T09:34:30;0.90;;;0.80;;
68583;SDS011;55557;49.220;11.150;2023-07-13T09:36:56;2.17;;;1.20;;
68583;SDS011;55557;49.220;11.150;2023-07-13T09:41:54;0.57;;;0.57;;
68583;SDS011;55557;49.220;11.150;2023-07-13T09:44:42;2.57;;;0.87;;
68583;SDS011;55557;49.220;11.150;2023-07-13T09:47:21;4.43;;;0.83;;
68583;SDS011;55557;49.220;11.150;2023-07-13T09:49:48;1.67;;;1.00;;
68583;SDS011;55557;49.220;11.150;2023-07-13T09:52:23;4.87;;;1.00;;
68583;SDS011;55557;49.220;11.150;2023-07-13T09:54:50;3.43;;;1.33;;
68583;SDS011;55557;49.220;11.150;2023-07-13T09:57:20;2.17;;;1.03;;
68583;SDS011;55557;49.220;11.150;2023-07-13T09:59:49;1.27;;;0.63;;
68583;SDS011;55557;49.220;11.150;2023-07-13T10:02:22;1.13;;;0.80;;
68583;SDS011;55557;49.220;11.150;2023-07-13T10:04:53;4.33;;;1.03;;
68583;SDS011;55557;49.220;11.150;2023-07-13T10:07:22;0.90;;;0.70;;
68583;SDS011;55557;49.220;11.150;2023-07-13T10:09:53;2.33;;;0.87;;
68583;SDS011;55557;49.220;11.150;2023-07-13T10:12:20;2.03;;;1.00;;
68583;SDS011;55557;49.220;11.150;2023-07-13T10:14:48;1.73;;;1.10;;
68583;SDS011;55557;49.220;11.150;2023-07-13T10:17:14;2.83;;;1.10;;
68583;SDS011;55557;49.220;11.150;2023-07-13T10:19:42;2.53;;;0.90;;
68583;SDS011;55557;49.220;11.150;2023-07-13T10:24:36;5.67;;;1.43;;
68583;SDS011;55557;49.220;11.150;2023-07-13T10:27:16;1.53;;;0.87;;
68583;SDS011;55557;49.220;11.150;2023-07-13T10:29:58;1.10;;;0.80;;
68583;SDS011;55557;49.220;11.150;2023-07-13T10:32:26;9.27;;;1.00;;
68583;SDS011;55557;49.220;11.150;2023-07-13T10:34:52;1.20;;;0.80;;
68583;SDS011;55557;49.220;11.150;2023-07-13T10:37:22;5.37;;;1.10;;
68583;SDS011;55557;49.220;11.150;2023-07-13T10:39:53;2.27;;;0.90;;
68583;SDS011;55557;49.220;11.150;2023-07-13T10:42:39;1.60;;;0.80;;
68583;SDS011;55557;49.220;11.150;2023-07-13T10:45:24;0.97;;;0.73;;
68583;SDS011;55557;49.220;11.150;2023-07-13T10:47:52;7.30;;;1.10;;
68583;SDS011;55557;49.220;11.150;2023-07-13T10:50:25;2.83;;;1.10;;
68583;SDS011;55557;49.220;11.150;2023-07-13T10:52:53;2.17;;;0.90;;
68583;SDS011;55557;49.220;11.150;2023-07-13T10:58:12;1.93;;;1.10;;
68583;SDS011;55557;49.220;11.150;2023-07-13T11:00:49;3.90;;;0.77;;
68583;SDS011;55557;49.220;11.150;2023-07-13T11:13:59;3.13;;;1.27;;
68583;SDS011;55557;49.220;11.150;2023-07-13T11:16:37;1.83;;;0.70;;
68583;SDS011;55557;49.220;11.150;2023-07-13T11:19:21;1.70;;;0.87;;
68583;SDS011;55557;49.220;11.150;2023-07-13T11:22:13;2.73;;;1.07;;
68583;SDS011;55557;49.220;11.150;2023-07-13T11:24:54;1.67;;;1.13;;
68583;SDS011;55557;49.220;11.150;2023-07-13T11:27:36;2.60;;;0.90;;
68583;SDS011;55557;49.220;11.150;2023-07-13T11:30:23;1.57;;;0.80;;
68583;SDS011;55557;49.220;11.150;2023-07-13T11:32:50;3.83;;;0.97;;
68583;SDS011;55557;49.220;11.150;2023-07-13T11:35:23;4.00;;;0.80;;
68583;SDS011;55557;49.220;11.150;2023-07-13T11:37:52;3.53;;;0.93;;
68583;SDS011;55557;49.220;11.150;2023-07-13T11:40:26;3.03;;;0.73;;
68583;SDS011;55557;49.220;11.150;2023-07-13T11:43:01;2.67;;;0.90;;
68583;SDS011;55557;49.220;11.150;2023-07-13T11:45:27;2.50;;;1.30;;
68583;SDS011;55557;49.220;11.150;2023-07-13T11:47:53;3.37;;;1.00;;
68583;SDS011;55557;49.220;11.150;2023-07-13T11:50:23;3.33;;;1.13;;
68583;SDS011;55557;49.220;11.150;2023-07-13T11:52:50;1.03;;;0.90;;
68583;SDS011;55557;49.220;11.150;2023-07-13T11:55:19;4.07;;;1.20;;
68583;SDS011;55557;49.220;11.150;2023-07-13T11:57:56;3.13;;;0.90;;
68583;SDS011;55557;49.220;11.150;2023-07-13T12:00:25;2.17;;;0.73;;
68583;SDS011;55557;49.220;11.150;2023-07-13T12:02:53;1.40;;;0.97;;
68583;SDS011;55557;49.220;11.150;2023-07-13T12:05:20;3.50;;;1.53;;
68583;SDS011;55557;49.220;11.150;2023-07-13T12:07:46;2.53;;;1.20;;
68583;SDS011;55557;49.220;11.150;2023-07-13T12:13:34;2.53;;;1.37;;
68583;SDS011;55557;49.220;11.150;2023-07-13T12:15:44;2.97;;;1.00;;
68583;SDS011;55557;49.220;11.150;2023-07-13T12:20:38;1.27;;;0.60;;
68583;SDS011;55557;49.220;11.150;2023-07-13T12:23:05;3.73;;;1.20;;
68583;SDS011;55557;49.220;11.150;2023-07-13T12:25:31;4.20;;;1.07;;
68583;SDS011;55557;49.220;11.150;2023-07-13T12:27:57;2.97;;;0.87;;
68583;SDS011;55557;49.220;11.150;2023-07-13T12:30:25;2.40;;;1.10;;
68583;SDS011;55557;49.220;11.150;2023-07-13T12:33:02;1.83;;;1.10;;
68583;SDS011;55557;49.220;11.150;2023-07-13T12:35:38;1.83;;;0.90;;
68583;SDS011;55557;49.220;11.150;2023-07-13T12:38:07;4.30;;;1.50;;
68583;SDS011;55557;49.220;11.150;2023-07-13T12:40:34;3.93;;;1.30;;
68583;SDS011;55557;49.220;11.150;2023-07-13T12:43:02;3.33;;;0.87;;
68583;SDS011;55557;49.220;11.150;2023-07-13T12:45:32;2.63;;;1.07;;
68583;SDS011;55557;49.220;11.150;2023-07-13T12:48:19;4.63;;;0.90;;
68583;SDS011;55557;49.220;11.150;2023-07-13T12:50:46;1.83;;;1.07;;
68583;SDS011;55557;49.220;11.150;2023-07-13T12:53:14;1.60;;;0.90;;
68583;SDS011;55557;49.220;11.150;2023-07-13T12:55:41;2.47;;;0.80;;
68583;SDS011;55557;49.220;11.150;2023-07-13T12:58:14;1.43;;;1.03;;
68583;SDS011;55557;49.220;11.150;2023-07-13T13:00:47;2.40;;;1.10;;
68583;SDS011;55557;49.220;11.150;2023-07-13T13:03:21;2.40;;;0.93;;
68583;SDS011;55557;49.220;11.150;2023-07-13T13:05:49;3.40;;;1.17;;
68583;SDS011;55557;49.220;11.150;2023-07-13T13:08:15;2.63;;;1.13;;
68583;SDS011;55557;49.220;11.150;2023-07-13T13:10:41;1.80;;;0.97;;
68583;SDS011;55557;49.220;11.150;2023-07-13T13:13:07;2.97;;;1.20;;
68583;SDS011;55557;49.220;11.150;2023-07-13T13:15:33;1.83;;;1.07;;
68583;SDS011;55557;49.220;11.150;2023-07-13T13:18:03;2.57;;;1.20;;
68583;SDS011;55557;49.220;11.150;2023-07-13T13:20:29;4.33;;;0.80;;
68583;SDS011;55557;49.220;11.150;2023-07-13T13:22:55;1.87;;;1.00;;
68583;SDS011;55557;49.220;11.150;2023-07-13T13:25:21;4.20;;;1.00;;
68583;SDS011;55557;49.220;11.150;2023-07-13T13:27:47;5.53;;;0.90;;
68583;SDS011;55557;49.220;11.150;2023-07-13T13:30:15;3.33;;;1.00;;
68583;SDS011;55557;49.220;11.150;2023-07-13T13:33:00;4.77;;;1.00;;
68583;SDS011;55557;49.220;11.150;2023-07-13T13:35:26;2.37;;;0.83;;
68583;SDS011;55557;49.220;11.150;2023-07-13T13:37:52;1.40;;;1.00;;
68583;SDS011;55557;49.220;11.150;2023-07-13T13:40:20;3.57;;;1.30;;
68583;SDS011;55557;49.220;11.150;2023-07-13T13:42:48;2.17;;;1.00;;
68583;SDS011;55557;49.220;11.150;2023-07-13T13:45:16;1.63;;;0.90;;
68583;SDS011;55557;49.220;11.150;2023-07-13T13:47:43;4.23;;;1.00;;
68583;SDS011;55557;49.220;11.150;2023-07-13T13:50:17;4.43;;;1.50;;
68583;SDS011;55557;49.220;11.150;2023-07-13T13:52:44;1.73;;;1.00;;
68583;SDS011;55557;49.220;11.150;2023-07-13T13:55:14;3.60;;;1.27;;
68583;SDS011;55557;49.220;11.150;2023-07-13T13:57:44;8.17;;;1.53;;
68583;SDS011;55557;49.220;11.150;2023-07-13T14:00:11;1.83;;;1.27;;
68583;SDS011;55557;49.220;11.150;2023-07-13T14:02:39;7.63;;;1.23;;
68583;SDS011;55557;49.220;11.150;2023-07-13T14:05:06;1.43;;;1.20;;
68583;SDS011;55557;49.220;11.150;2023-07-13T14:07:35;2.20;;;1.33;;
68583;SDS011;55557;49.220;11.150;2023-07-13T14:10:01;4.67;;;1.50;;
68583;SDS011;55557;49.220;11.150;2023-07-13T14:12:28;1.53;;;1.00;;
68583;SDS011;55557;49.220;11.150;2023-07-13T14:14:55;3.40;;;1.07;;
68583;SDS011;55557;49.220;11.150;2023-07-13T14:17:24;3.23;;;1.03;;
68583;SDS011;55557;49.220;11.150;2023-07-13T14:19:52;3.63;;;0.97;;
68583;SDS011;55557;49.220;11.150;2023-07-13T14:22:22;1.77;;;1.17;;
68583;SDS011;55557;49.220;11.150;2023-07-13T14:24:49;10.73;;;1.50;;
68583;SDS011;55557;49.220;11.150;2023-07-13T14:27:15;2.53;;;1.60;;
68583;SDS011;55557;49.220;11.150;2023-07-13T14:29:41;3.40;;;1.30;;
68583;SDS011;55557;49.220;11.150;2023-07-13T14:32:11;1.87;;;1.17;;
68583;SDS011;55557;49.220;11.150;2023-07-13T14:34:37;3.20;;;1.10;;
68583;SDS011;55557;49.220;11.150;2023-07-13T14:37:03;3.30;;;1.10;;
68583;SDS011;55557;49.220;11.150;2023-07-13T14:39:30;3.73;;;1.13;;
68583;SDS011;55557;49.220;11.150;2023-07-13T14:41:57;2.00;;;1.03;;
68583;SDS011;55557;49.220;11.150;2023-07-13T14:44:25;1.30;;;1.00;;
68583;SDS011;55557;49.220;11.150;2023-07-13T14:46:54;1.73;;;0.93;;
68583;SDS011;55557;49.220;11.150;2023-07-13T14:49:33;3.97;;;1.00;;
68583;SDS011;55557;49.220;11.150;2023-07-13T14:52:01;2.33;;;1.10;;
68583;SDS011;55557;49.220;11.150;2023-07-13T14:54:32;1.80;;;1.20;;
68583;SDS011;55557;49.220;11.150;2023-07-13T15:00:02;3.00;;;1.10;;
68583;SDS011;55557;49.220;11.150;2023-07-13T15:02:29;3.80;;;1.40;;
68583;SDS011;55557;49.220;11.150;2023-07-13T15:07:59;2.90;;;0.97;;
68583;SDS011;55557;49.220;11.150;2023-07-13T15:10:27;2.03;;;0.83;;
68583;SDS011;55557;49.220;11.150;2023-07-13T15:13:01;3.70;;;1.03;;
68583;SDS011;55557;49.220;11.150;2023-07-13T15:15:37;3.20;;;1.00;;
68583;SDS011;55557;49.220;11.150;2023-07-13T15:18:05;6.10;;;1.40;;
68583;SDS011;55557;49.220;11.150;2023-07-13T15:20:35;2.27;;;1.00;;
68583;SDS011;55557;49.220;11.150;2023-07-13T15:23:04;2.60;;;1.07;;
68583;SDS011;55557;49.220;11.150;2023-07-13T15:25:31;2.30;;;0.80;;
68583;SDS011;55557;49.220;11.150;2023-07-13T15:27:58;2.63;;;1.10;;
68583;SDS011;55557;49.220;11.150;2023-07-13T15:30:39;2.83;;;1.10;;